Time;durP1;ratioP1;P1;durP2;ratioP2;P2;SDS_P1;SDS_P2;PMS_P1;PMS_P2;Temp;Humidity;BMP_temperature;BMP_pressure;BME280_temperature;BME280_humidity;BME280_pressure;Samples;Min_cycle;Max_cycle;Signal;HPM_P1;HPM_P2
2021/08/28 00:01:30;;;;;;;19.02;5.45;;;13.80;99.90;;;;;;5012952;28;20018;-78
2021/08/28 00:03:55;;;;;;;16.27;4.57;;;13.80;99.90;;;;;;5012660;28;20470;-79
2021/08/28 00:06:21;;;;;;;11.98;4.45;;;13.90;99.90;;;;;;5013342;28;20026;-80
2021/08/28 00:08:46;;;;;;;11.77;4.43;;;13.90;99.90;;;;;;5012672;28;20036;-79
2021/08/28 00:11:12;;;;;;;10.55;4.97;;;13.90;99.90;;;;;;5012422;28;20030;-80
2021/08/28 00:13:39;;;;;;;14.60;5.50;;;13.90;99.90;;;;;;5013267;28;20470;-78
2021/08/28 00:16:04;;;;;;;11.35;5.53;;;14.00;99.90;;;;;;5013037;28;20438;-79
2021/08/28 00:18:30;;;;;;;12.80;5.80;;;14.00;99.90;;;;;;5011820;28;20053;-81
2021/08/28 00:20:55;;;;;;;11.88;4.95;;;14.10;99.90;;;;;;5012485;28;20053;-78
2021/08/28 00:23:21;;;;;;;25.92;5.22;;;14.20;99.90;;;;;;5012920;28;20432;-79
2021/08/28 00:25:47;;;;;;;15.13;5.72;;;14.20;99.90;;;;;;5013635;28;20489;-79
2021/08/28 00:28:12;;;;;;;10.63;5.50;;;14.30;99.90;;;;;;5012666;28;20033;-80
2021/08/28 00:30:38;;;;;;;13.57;5.65;;;14.40;99.90;;;;;;5012456;28;20088;-79
2021/08/28 00:33:15;;;;;;;24.95;5.97;;;14.40;99.90;;;;;;5011964;28;20104;-80
2021/08/28 00:35:41;;;;;;;12.85;5.30;;;14.40;99.90;;;;;;5012398;28;20493;-80
2021/08/28 00:38:07;;;;;;;13.93;4.72;;;14.50;99.90;;;;;;5012588;28;20144;-80
2021/08/28 00:40:35;;;;;;;19.73;5.38;;;14.50;99.90;;;;;;5011874;28;20132;-81
2021/08/28 00:43:01;;;;;;;11.75;4.32;;;14.60;99.90;;;;;;5013008;28;20494;-79
2021/08/28 00:45:38;;;;;;;16.35;4.85;;;14.60;99.90;;;;;;5012449;28;20073;-79
2021/08/28 00:48:06;;;;;;;16.25;6.35;;;14.60;99.90;;;;;;5011515;28;20409;-79
2021/08/28 00:50:33;;;;;;;14.95;5.80;;;14.70;99.90;;;;;;5012136;28;20045;-76
2021/08/28 00:53:01;;;;;;;14.40;5.03;;;14.60;99.90;;;;;;4997764;28;20069;-79
2021/08/28 00:55:27;;;;;;;20.08;5.20;;;14.70;99.90;;;;;;5004663;28;20023;-79
2021/08/28 00:57:57;;;;;;;19.55;5.45;;;14.70;99.90;;;;;;5006422;28;20030;-78
2021/08/28 01:00:23;;;;;;;16.13;5.78;;;14.70;99.90;;;;;;4998830;28;20053;-79
2021/08/28 01:02:51;;;;;;;18.70;5.43;;;14.60;99.90;;;;;;5012483;28;20064;-80
2021/08/28 01:05:28;;;;;;;21.45;5.15;;;14.60;99.90;;;;;;5012399;28;20089;-79
2021/08/28 01:08:23;;;;;;;18.90;5.15;;;14.60;99.90;;;;;;5011729;28;20026;-79
2021/08/28 01:11:18;;;;;;;16.63;5.40;;;14.50;99.90;;;;;;5010627;28;20028;-78
2021/08/28 01:13:53;;;;;;;16.50;6.22;;;14.50;99.90;;;;;;5012034;28;20129;-78
2021/08/28 01:16:21;;;;;;;12.10;5.05;;;14.50;99.90;;;;;;5005066;28;20095;-78
2021/08/28 01:18:48;;;;;;;22.25;5.30;;;14.40;99.90;;;;;;5011793;28;20038;-79
2021/08/28 01:21:31;;;;;;;13.80;5.38;;;14.40;99.90;;;;;;5011373;28;20045;-79
2021/08/28 01:24:03;;;;;;;16.50;5.60;;;14.40;99.90;;;;;;5011680;28;20030;-79
2021/08/28 01:26:41;;;;;;;17.88;5.25;;;14.40;99.90;;;;;;5011747;28;20497;-78
2021/08/28 01:29:18;;;;;;;23.60;6.45;;;14.30;99.90;;;;;;5011181;28;20022;-79
2021/08/28 01:31:45;;;;;;;18.27;5.95;;;14.30;99.90;;;;;;5011727;28;20040;-78
2021/08/28 01:34:18;;;;;;;22.80;6.35;;;14.30;99.90;;;;;;5012020;28;20022;-79
2021/08/28 01:36:46;;;;;;;19.70;5.85;;;14.30;99.90;;;;;;5009604;28;20030;-79
2021/08/28 01:39:12;;;;;;;18.08;5.70;;;14.30;99.90;;;;;;5012237;28;20037;-79
2021/08/28 01:41:39;;;;;;;18.77;5.80;;;14.30;99.90;;;;;;5011683;28;20026;-80
2021/08/28 01:44:09;;;;;;;14.80;5.80;;;14.30;99.90;;;;;;5011116;28;20084;-79
2021/08/28 01:46:36;;;;;;;15.43;5.60;;;14.30;99.90;;;;;;5011580;28;20029;-78
2021/08/28 01:49:01;;;;;;;14.93;5.32;;;14.40;99.90;;;;;;5011869;28;20108;-80
2021/08/28 01:51:29;;;;;;;12.57;5.38;;;14.30;99.90;;;;;;5011084;28;20113;-80
2021/08/28 01:53:55;;;;;;;9.77;5.47;;;14.40;99.90;;;;;;5011672;28;20537;-79
2021/08/28 01:56:21;;;;;;;15.50;5.15;;;14.40;99.90;;;;;;5011409;28;20117;-79
2021/08/28 01:58:47;;;;;;;12.77;6.35;;;14.40;99.90;;;;;;5011869;28;20030;-79
2021/08/28 02:01:12;;;;;;;11.38;4.93;;;14.40;99.90;;;;;;5014757;28;20030;-79
2021/08/28 02:03:38;;;;;;;13.27;5.07;;;14.40;99.90;;;;;;5022413;28;20373;-79
2021/08/28 02:06:06;;;;;;;16.80;4.90;;;14.40;99.90;;;;;;5011791;28;20049;-79
2021/08/28 02:08:59;;;;;;;13.82;4.88;;;14.50;99.90;;;;;;5011415;28;20026;-79
2021/08/28 02:11:33;;;;;;;15.75;5.40;;;14.50;99.90;;;;;;5014242;28;20024;-79
2021/08/28 02:14:13;;;;;;;21.60;6.25;;;14.40;99.90;;;;;;5014906;28;20105;-78
2021/08/28 02:16:42;;;;;;;20.35;5.85;;;14.50;99.90;;;;;;5015143;28;20018;-78
2021/08/28 02:19:19;;;;;;;10.05;5.80;;;14.40;99.90;;;;;;5014544;28;20381;-79
2021/08/28 02:21:55;;;;;;;12.48;5.63;;;14.40;99.90;;;;;;5015034;28;20025;-79
2021/08/28 02:24:26;;;;;;;14.02;5.18;;;14.50;99.90;;;;;;5014340;28;20049;-77
2021/08/28 02:27:05;;;;;;;16.52;6.10;;;14.50;99.90;;;;;;5015003;28;20448;-78
2021/08/28 02:29:43;;;;;;;19.98;5.93;;;14.50;99.90;;;;;;5014356;28;20140;-77
2021/08/28 02:32:09;;;;;;;21.83;5.72;;;14.50;99.90;;;;;;5014313;28;20038;-78
2021/08/28 02:34:38;;;;;;;15.68;6.63;;;14.50;99.90;;;;;;5014650;28;20490;-77
2021/08/28 02:37:04;;;;;;;17.50;5.68;;;14.50;99.90;;;;;;5014838;28;20065;-77
2021/08/28 02:39:30;;;;;;;23.70;5.75;;;14.50;99.90;;;;;;5014053;28;20072;-78
2021/08/28 02:41:57;;;;;;;13.73;5.40;;;14.60;99.90;;;;;;5014695;28;20082;-78
2021/08/28 02:44:25;;;;;;;7.97;5.05;;;14.50;99.90;;;;;;5014518;28;20541;-78
2021/08/28 02:46:53;;;;;;;14.63;6.03;;;14.50;99.90;;;;;;5013586;28;20044;-77
2021/08/28 02:49:22;;;;;;;14.25;5.28;;;14.50;99.90;;;;;;5014488;28;20037;-79
2021/08/28 02:51:49;;;;;;;13.25;5.80;;;14.50;99.90;;;;;;5014366;28;20113;-80
2021/08/28 02:54:17;;;;;;;20.40;5.47;;;14.60;99.90;;;;;;5013791;28;20049;-80
2021/08/28 02:56:48;;;;;;;19.58;6.00;;;14.50;99.90;;;;;;5013986;28;20172;-77
2021/08/28 02:59:17;;;;;;;16.17;6.18;;;14.60;99.90;;;;;;5014446;28;20029;-78
2021/08/28 03:01:43;;;;;;;18.00;6.47;;;14.60;99.90;;;;;;5013180;28;20029;-78
2021/08/28 03:04:09;;;;;;;16.45;6.00;;;14.60;99.90;;;;;;5014055;28;20540;-79
2021/08/28 03:06:35;;;;;;;17.50;6.22;;;14.70;99.90;;;;;;5013364;28;20061;-78
2021/08/28 03:09:01;;;;;;;13.50;5.85;;;14.70;99.90;;;;;;5014310;28;20022;-78
2021/08/28 03:11:27;;;;;;;14.40;6.22;;;14.70;99.90;;;;;;5013961;28;20026;-78
2021/08/28 03:13:53;;;;;;;22.75;6.82;;;14.80;99.90;;;;;;5015110;28;20734;-79
2021/08/28 03:16:21;;;;;;;19.35;6.45;;;14.80;99.90;;;;;;5014111;28;20052;-79
2021/08/28 03:18:50;;;;;;;25.92;6.57;;;14.80;99.90;;;;;;5013884;28;20417;-78
2021/08/28 03:21:18;;;;;;;15.43;6.22;;;14.90;99.90;;;;;;5013047;28;20462;-79
2021/08/28 03:23:46;;;;;;;17.77;5.53;;;14.90;99.90;;;;;;5013876;28;20032;-79
2021/08/28 03:26:13;;;;;;;14.32;5.70;;;14.90;99.90;;;;;;5014507;28;20037;-79
2021/08/28 03:28:40;;;;;;;16.83;6.38;;;14.80;99.90;;;;;;5013190;28;20018;-79
2021/08/28 03:31:06;;;;;;;11.18;6.05;;;15.00;99.90;;;;;;5013407;28;20029;-79
2021/08/28 03:33:31;;;;;;;15.00;6.38;;;15.00;99.90;;;;;;5013354;28;20347;-79
2021/08/28 03:35:57;;;;;;;25.38;6.97;;;14.90;99.90;;;;;;5013110;28;20025;-79
2021/08/28 03:38:23;;;;;;;14.65;5.80;;;14.90;99.90;;;;;;5013458;28;20036;-79
2021/08/28 03:40:49;;;;;;;15.35;6.03;;;14.90;99.90;;;;;;5012342;28;20033;-78
2021/08/28 03:43:17;;;;;;;14.43;5.22;;;14.90;99.90;;;;;;5012931;28;20443;-78
2021/08/28 03:45:43;;;;;;;12.20;5.75;;;14.90;99.90;;;;;;5011981;28;20044;-78
2021/08/28 03:48:10;;;;;;;14.48;5.72;;;14.90;99.90;;;;;;5013548;28;20050;-77
2021/08/28 03:50:35;;;;;;;11.45;6.00;;;14.90;99.90;;;;;;5013578;28;20084;-79
2021/08/28 03:53:01;;;;;;;15.05;5.60;;;15.00;99.90;;;;;;5014596;28;20025;-78
2021/08/28 03:55:26;;;;;;;12.57;6.47;;;14.90;99.90;;;;;;5014773;28;20018;-80
2021/08/28 03:57:52;;;;;;;15.93;5.90;;;14.90;99.90;;;;;;5013281;28;20030;-77
2021/08/28 04:00:17;;;;;;;8.40;5.00;;;14.90;99.90;;;;;;5013078;28;20182;-79
2021/08/28 04:02:43;;;;;;;11.98;5.13;;;14.90;99.90;;;;;;5012972;28;20560;-78
2021/08/28 04:05:09;;;;;;;8.70;4.78;;;14.90;99.90;;;;;;5012404;28;20041;-78
2021/08/28 04:07:39;;;;;;;9.15;5.07;;;15.00;99.90;;;;;;5013414;28;20029;-78
2021/08/28 04:10:05;;;;;;;10.52;5.45;;;15.00;99.90;;;;;;5013945;28;20025;-78
2021/08/28 04:12:31;;;;;;;11.73;5.43;;;15.00;99.90;;;;;;5012744;28;20021;-78
2021/08/28 04:14:56;;;;;;;13.30;4.88;;;15.00;99.90;;;;;;5012834;28;20040;-78
2021/08/28 04:17:25;;;;;;;13.13;5.65;;;15.00;99.90;;;;;;5013760;28;20683;-78
2021/08/28 04:19:50;;;;;;;12.63;5.35;;;15.00;99.90;;;;;;5012393;28;20121;-78
2021/08/28 04:22:16;;;;;;;9.65;4.47;;;15.10;99.90;;;;;;5012868;28;20077;-78
2021/08/28 04:24:41;;;;;;;7.72;5.05;;;15.10;99.90;;;;;;5011747;28;20429;-77
2021/08/28 04:27:07;;;;;;;9.93;4.78;;;15.10;99.90;;;;;;5011420;28;20029;-78
2021/08/28 04:29:33;;;;;;;10.38;5.18;;;15.10;99.90;;;;;;5012333;28;20033;-79
2021/08/28 04:31:58;;;;;;;9.82;4.78;;;15.20;99.90;;;;;;5011880;28;20168;-78
2021/08/28 04:34:24;;;;;;;9.57;5.22;;;15.20;99.90;;;;;;5012222;28;20087;-79
2021/08/28 04:36:49;;;;;;;10.80;5.00;;;15.20;99.90;;;;;;5012223;28;20105;-79
2021/08/28 04:39:15;;;;;;;8.18;4.90;;;15.20;99.90;;;;;;5011073;28;20508;-78
2021/08/28 04:41:41;;;;;;;11.82;5.25;;;15.20;99.90;;;;;;5012014;28;20099;-78
2021/08/28 04:44:06;;;;;;;11.10;5.00;;;15.20;99.90;;;;;;5012293;28;20040;-80
2021/08/28 04:46:32;;;;;;;11.60;4.97;;;15.20;99.90;;;;;;5011304;28;20052;-79
2021/08/28 04:48:58;;;;;;;11.65;4.90;;;15.30;99.90;;;;;;5012369;28;20398;-78
2021/08/28 04:51:23;;;;;;;13.38;4.95;;;15.20;99.90;;;;;;5013203;28;20026;-80
2021/08/28 04:53:49;;;;;;;11.10;5.10;;;15.30;99.90;;;;;;5011647;28;20037;-77
2021/08/28 04:56:14;;;;;;;9.70;4.80;;;15.30;99.90;;;;;;5012303;28;20026;-77
2021/08/28 04:58:40;;;;;;;8.65;5.22;;;15.30;99.90;;;;;;5011765;28;20105;-77
2021/08/28 05:01:05;;;;;;;13.68;5.72;;;15.30;99.90;;;;;;5011609;28;20125;-76
2021/08/28 05:03:31;;;;;;;19.70;6.63;;;15.30;99.90;;;;;;5005320;28;20057;-76
2021/08/28 05:05:56;;;;;;;26.20;6.78;;;15.30;99.90;;;;;;4996814;28;20042;-76
2021/08/28 05:08:22;;;;;;;9.85;5.72;;;15.30;99.90;;;;;;4995980;28;20028;-76
2021/08/28 05:10:48;;;;;;;15.75;5.75;;;15.30;99.90;;;;;;4994251;28;20042;-76
2021/08/28 05:13:14;;;;;;;17.73;6.50;;;15.40;99.90;;;;;;4993754;28;20164;-78
2021/08/28 05:15:40;;;;;;;10.52;6.15;;;15.30;99.90;;;;;;4993985;28;20121;-76
2021/08/28 05:18:06;;;;;;;12.77;5.90;;;15.30;99.90;;;;;;5012070;28;20025;-77
2021/08/28 05:20:31;;;;;;;16.63;6.68;;;15.30;99.90;;;;;;5010938;28;20041;-77
2021/08/28 05:22:57;;;;;;;13.63;5.93;;;15.30;99.90;;;;;;5012056;28;20492;-77
2021/08/28 05:25:23;;;;;;;12.35;6.05;;;15.40;99.90;;;;;;5011934;28;20060;-77
2021/08/28 05:27:48;;;;;;;12.57;5.57;;;15.40;99.90;;;;;;5011108;28;20232;-76
2021/08/28 05:30:14;;;;;;;13.25;5.43;;;15.40;99.90;;;;;;5012329;28;20514;-77
2021/08/28 05:32:41;;;;;;;26.88;6.43;;;15.40;99.90;;;;;;5007787;28;20109;-77
2021/08/28 05:35:07;;;;;;;11.68;4.70;;;15.50;99.90;;;;;;4999239;28;20034;-76
2021/08/28 05:37:32;;;;;;;16.35;5.47;;;15.50;99.90;;;;;;5010030;28;20464;-78
2021/08/28 05:39:58;;;;;;;8.48;5.30;;;15.50;99.90;;;;;;5011820;28;20022;-76
2021/08/28 05:42:23;;;;;;;16.40;5.65;;;15.50;99.90;;;;;;5011351;28;20076;-78
2021/08/28 05:44:49;;;;;;;12.50;5.38;;;15.50;99.90;;;;;;5013930;28;20432;-78
2021/08/28 05:47:15;;;;;;;11.23;4.68;;;15.50;99.90;;;;;;5017091;28;20063;-76
2021/08/28 05:49:40;;;;;;;14.02;5.30;;;15.60;99.90;;;;;;5016182;28;20034;-76
2021/08/28 05:52:06;;;;;;;14.70;4.93;;;15.60;99.90;;;;;;5015691;28;20028;-76
2021/08/28 05:54:32;;;;;;;9.60;5.35;;;15.70;99.90;;;;;;5015432;28;20112;-76
2021/08/28 05:57:00;;;;;;;9.93;5.05;;;15.70;99.90;;;;;;5014572;28;20056;-78
2021/08/28 05:59:25;;;;;;;11.93;5.28;;;15.70;99.90;;;;;;5015605;28;20026;-77
2021/08/28 06:01:52;;;;;;;9.82;4.78;;;15.70;99.90;;;;;;5015327;28;20022;-77
2021/08/28 06:04:18;;;;;;;10.07;5.57;;;15.80;99.90;;;;;;5014569;28;20504;-79
2021/08/28 06:06:43;;;;;;;13.48;5.03;;;15.80;99.90;;;;;;5015397;28;20022;-80
2021/08/28 06:09:09;;;;;;;8.43;4.90;;;15.80;99.90;;;;;;5015807;28;20030;-78
2021/08/28 06:11:34;;;;;;;12.45;5.78;;;15.80;99.90;;;;;;5014084;28;20474;-77
2021/08/28 06:14:00;;;;;;;13.52;4.95;;;15.90;99.90;;;;;;5015365;28;20378;-77
2021/08/28 06:16:26;;;;;;;12.52;5.38;;;15.90;99.90;;;;;;5014501;28;20068;-76
2021/08/28 06:18:51;;;;;;;10.13;5.35;;;16.00;99.90;;;;;;5015422;28;20018;-78
2021/08/28 06:21:19;;;;;;;16.05;5.63;;;16.00;99.90;;;;;;5015073;28;20065;-77
2021/08/28 06:23:44;;;;;;;8.15;5.25;;;16.10;99.90;;;;;;5014175;28;20056;-77
2021/08/28 06:26:10;;;;;;;11.13;5.13;;;16.10;99.90;;;;;;5014715;28;20389;-78
2021/08/28 06:28:35;;;;;;;10.57;4.93;;;16.20;99.90;;;;;;5014875;28;20018;-78
2021/08/28 06:31:01;;;;;;;11.48;5.22;;;16.30;99.90;;;;;;5013562;28;20037;-78
2021/08/28 06:33:26;;;;;;;13.38;4.57;;;16.40;99.90;;;;;;5014677;28;20370;-77
2021/08/28 06:35:52;;;;;;;12.13;5.55;;;16.50;99.90;;;;;;5014893;28;20105;-78
2021/08/28 06:38:17;;;;;;;11.38;5.43;;;16.50;99.90;;;;;;5013937;28;20420;-78
2021/08/28 06:40:43;;;;;;;12.55;5.43;;;16.60;99.90;;;;;;5014387;28;20033;-77
2021/08/28 06:43:09;;;;;;;13.00;4.93;;;16.60;99.90;;;;;;5014708;28;20438;-77
2021/08/28 06:45:34;;;;;;;15.98;5.15;;;16.50;99.90;;;;;;5013526;28;20096;-77
2021/08/28 06:48:00;;;;;;;11.70;5.03;;;16.60;99.90;;;;;;5014418;28;20470;-78
2021/08/28 06:50:25;;;;;;;13.73;5.95;;;16.60;99.90;;;;;;5014330;28;20046;-77
2021/08/28 06:52:51;;;;;;;11.13;5.05;;;16.70;99.90;;;;;;5013574;28;20026;-78
2021/08/28 06:55:17;;;;;;;11.00;5.30;;;16.80;99.90;;;;;;5013575;28;20030;-77
2021/08/28 06:57:42;;;;;;;12.48;5.38;;;16.90;99.90;;;;;;5014187;28;20029;-77
2021/08/28 07:00:08;;;;;;;10.52;5.18;;;17.00;99.90;;;;;;5013296;28;20034;-78
2021/08/28 07:02:34;;;;;;;10.32;5.07;;;17.10;99.90;;;;;;5013919;28;20025;-76
2021/08/28 07:04:59;;;;;;;9.93;4.75;;;17.30;99.90;;;;;;5014276;28;20037;-77
2021/08/28 07:07:25;;;;;;;17.65;5.80;;;17.30;99.90;;;;;;5013213;28;20018;-77
2021/08/28 07:09:51;;;;;;;13.85;5.13;;;17.30;99.90;;;;;;5013826;28;20026;-76
2021/08/28 07:12:16;;;;;;;12.63;5.25;;;17.20;99.90;;;;;;5014199;28;20026;-77
2021/08/28 07:14:43;;;;;;;17.33;5.75;;;17.10;99.90;;;;;;5013408;28;20033;-77
2021/08/28 07:17:12;;;;;;;18.55;5.63;;;17.00;99.90;;;;;;5013964;28;20030;-77
2021/08/28 07:19:37;;;;;;;17.30;5.50;;;17.00;99.90;;;;;;5013508;28;20120;-75
2021/08/28 07:22:03;;;;;;;13.25;5.88;;;16.90;99.90;;;;;;5014773;28;20105;-78
2021/08/28 07:24:29;;;;;;;11.15;5.55;;;16.80;99.90;;;;;;5014245;28;20072;-76
2021/08/28 07:26:54;;;;;;;10.50;4.82;;;16.70;99.90;;;;;;5013824;28;20049;-76
2021/08/28 07:29:20;;;;;;;11.57;5.60;;;16.60;99.90;;;;;;5014171;28;20080;-77
2021/08/28 07:31:46;;;;;;;9.48;5.13;;;16.60;99.90;;;;;;4999603;28;20025;-76
2021/08/28 07:34:11;;;;;;;11.65;5.50;;;16.60;99.90;;;;;;5012957;28;20029;-76
2021/08/28 07:36:37;;;;;;;17.55;6.85;;;16.60;99.90;;;;;;5014714;28;20018;-76
2021/08/28 07:39:03;;;;;;;14.45;5.30;;;16.60;99.90;;;;;;5013542;28;20488;-76
2021/08/28 07:41:31;;;;;;;11.85;5.75;;;16.70;99.90;;;;;;5014559;28;20022;-76
2021/08/28 07:43:56;;;;;;;13.23;4.90;;;16.70;99.90;;;;;;5013380;28;20604;-74
2021/08/28 07:46:22;;;;;;;9.45;4.95;;;16.60;99.90;;;;;;5013469;28;20116;-76
2021/08/28 07:48:48;;;;;;;12.55;5.93;;;16.70;99.90;;;;;;5012488;28;20069;-76
2021/08/28 07:51:19;;;;;;;8.15;4.85;;;16.70;99.90;;;;;;5013443;28;20048;-76
2021/08/28 07:53:45;;;;;;;9.88;4.38;;;16.80;99.90;;;;;;5014376;28;20026;-76
2021/08/28 07:56:10;;;;;;;13.00;5.22;;;16.80;99.90;;;;;;5013152;28;20026;-77
2021/08/28 07:58:36;;;;;;;9.40;3.92;;;16.80;99.90;;;;;;5013483;28;20014;-78
2021/08/28 08:01:02;;;;;;;10.73;4.30;;;16.70;99.90;;;;;;5013398;28;20111;-80
2021/08/28 08:03:27;;;;;;;6.97;3.65;;;16.70;99.90;;;;;;5012545;28;20025;-80
2021/08/28 08:05:53;;;;;;;11.73;4.68;;;16.70;99.90;;;;;;5013975;28;20033;-79
2021/08/28 08:08:18;;;;;;;7.68;4.00;;;16.80;99.90;;;;;;5012530;28;20028;-79
2021/08/28 08:10:44;;;;;;;9.23;4.00;;;16.80;99.90;;;;;;5011698;28;20053;-79
2021/08/28 08:13:09;;;;;;;8.82;4.68;;;16.90;99.90;;;;;;5013099;28;20061;-78
2021/08/28 08:15:35;;;;;;;10.93;4.75;;;17.00;99.90;;;;;;5012588;28;20060;-79
2021/08/28 08:18:01;;;;;;;11.48;5.47;;;17.20;99.90;;;;;;5012752;28;20033;-79
2021/08/28 08:20:26;;;;;;;9.52;3.80;;;17.30;99.90;;;;;;5013467;28;20403;-79
2021/08/28 08:22:53;;;;;;;8.82;4.38;;;17.50;99.90;;;;;;5012409;28;20509;-79
2021/08/28 08:25:19;;;;;;;7.70;3.92;;;17.50;99.90;;;;;;5011879;28;20065;-78
2021/08/28 08:27:44;;;;;;;10.48;4.57;;;17.50;99.90;;;;;;4999497;28;20022;-78
2021/08/28 08:30:11;;;;;;;8.88;3.35;;;17.50;99.90;;;;;;5012085;28;20458;-78
2021/08/28 08:32:36;;;;;;;6.38;4.28;;;17.40;99.90;;;;;;5012678;28;20045;-79
2021/08/28 08:35:03;;;;;;;12.60;4.97;;;17.40;99.90;;;;;;5012749;28;20060;-80
2021/08/28 08:37:29;;;;;;;8.07;3.90;;;17.40;99.90;;;;;;5011910;28;20028;-79
2021/08/28 08:39:54;;;;;;;8.68;3.83;;;17.50;99.90;;;;;;5012627;28;20529;-79
2021/08/28 08:42:23;;;;;;;6.28;3.80;;;17.70;99.90;;;;;;5012907;28;20017;-82
2021/08/28 08:44:48;;;;;;;6.38;4.00;;;17.80;99.90;;;;;;5011902;28;20478;-78
2021/08/28 08:47:16;;;;;;;10.98;4.88;;;17.90;99.90;;;;;;5012856;28;20026;-79
2021/08/28 08:49:42;;;;;;;10.07;4.43;;;18.00;99.90;;;;;;5012433;28;20107;-80
2021/08/28 08:52:08;;;;;;;5.28;3.88;;;18.10;99.90;;;;;;5012023;28;20056;-81
2021/08/28 08:54:35;;;;;;;7.85;3.90;;;18.20;99.90;;;;;;5012893;28;20100;-81
2021/08/28 08:57:01;;;;;;;9.68;4.15;;;18.30;99.90;;;;;;5012874;28;20058;-79
2021/08/28 08:59:28;;;;;;;7.13;3.65;;;18.30;99.90;;;;;;5011904;28;20025;-83
2021/08/28 09:01:53;;;;;;;8.10;3.90;;;18.40;99.90;;;;;;5012774;28;20137;-79
2021/08/28 09:04:19;;;;;;;7.93;4.53;;;18.50;99.90;;;;;;5012707;28;20466;-82
2021/08/28 09:06:46;;;;;;;15.75;5.10;;;18.50;99.90;;;;;;5012224;28;20018;-81
2021/08/28 09:09:13;;;;;;;7.95;4.85;;;18.70;99.90;;;;;;5010564;28;20030;-83
2021/08/28 09:11:55;;;;;;;7.78;3.80;;;18.60;99.90;;;;;;5012175;28;20382;-83
2021/08/28 09:14:22;;;;;;;7.55;4.40;;;18.60;99.90;;;;;;5008407;28;20076;-83
2021/08/28 09:16:50;;;;;;;9.98;3.80;;;18.60;99.90;;;;;;5008708;28;20034;-83
2021/08/28 09:19:16;;;;;;;8.88;4.45;;;18.60;99.90;;;;;;5014554;28;20478;-84
2021/08/28 09:21:43;;;;;;;8.48;4.43;;;18.60;99.90;;;;;;5033065;28;20025;-81
2021/08/28 09:24:13;;;;;;;8.23;4.28;;;18.60;99.90;;;;;;5023049;28;20034;-81
2021/08/28 09:26:41;;;;;;;9.80;3.90;;;18.60;99.90;;;;;;5015266;28;20030;-81
2021/08/28 09:29:09;;;;;;;8.18;4.47;;;18.70;99.90;;;;;;5016163;28;20063;-81
2021/08/28 09:31:45;;;;;;;6.30;4.20;;;18.90;99.90;;;;;;5015501;28;20565;-81
2021/08/28 09:34:22;;;;;;;10.50;4.72;;;19.10;99.90;;;;;;5018508;28;20052;-82
2021/08/28 09:36:58;;;;;;;5.95;3.85;;;19.30;99.90;;;;;;5015983;28;20378;-82
2021/08/28 09:39:43;;;;;;;6.47;4.22;;;19.30;99.90;;;;;;5016745;28;20472;-81
2021/08/28 09:42:30;;;;;;;8.93;4.75;;;19.30;99.90;;;;;;5003388;28;20389;-80
2021/08/28 09:44:56;;;;;;;10.50;4.40;;;19.20;99.90;;;;;;5015577;28;20056;-75
2021/08/28 09:47:29;;;;;;;9.20;4.38;;;19.50;99.90;;;;;;5015944;28;20108;-80
2021/08/28 09:49:54;;;;;;;5.50;4.30;;;19.50;99.90;;;;;;5016300;28;20046;-82
2021/08/28 09:52:22;;;;;;;9.80;4.45;;;19.80;99.90;;;;;;5016969;28;20037;-83
2021/08/28 09:54:48;;;;;;;10.27;4.55;;;19.90;99.90;;;;;;5016764;28;20041;-72
2021/08/28 09:57:14;;;;;;;13.38;4.55;;;19.80;99.90;;;;;;5017255;28;20025;-85
2021/08/28 09:59:45;;;;;;;8.48;4.57;;;19.90;99.90;;;;;;5014031;28;20030;-83
2021/08/28 10:02:15;;;;;;;8.90;4.47;;;19.90;99.90;;;;;;5026018;28;20018;-81
2021/08/28 10:04:59;;;;;;;6.75;3.78;;;19.80;99.90;;;;;;5023933;28;20042;-82
2021/08/28 10:07:27;;;;;;;10.90;4.45;;;19.80;99.90;;;;;;5032449;28;20452;-84
2021/08/28 10:10:01;;;;;;;10.18;3.88;;;20.00;99.90;;;;;;5033380;28;20030;-84
2021/08/28 10:12:29;;;;;;;4.20;3.63;;;20.00;99.90;;;;;;5028826;28;20026;-86
2021/08/28 10:14:55;;;;;;;6.72;3.88;;;19.90;99.90;;;;;;5034687;28;20074;-83
2021/08/28 10:17:22;;;;;;;8.15;3.95;;;19.80;99.90;;;;;;5030267;28;20076;-81
2021/08/28 10:19:50;;;;;;;8.90;4.68;;;19.70;99.90;;;;;;5032986;28;20030;-82
2021/08/28 10:22:21;;;;;;;7.07;4.22;;;19.60;99.90;;;;;;5020629;28;20101;-84
2021/08/28 10:24:47;;;;;;;;;;;19.80;99.90;;;;;;5015620;28;20038;-84
2021/08/28 10:27:14;;;;;;;5.70;3.80;;;20.10;99.90;;;;;;5014228;28;19963;-84
2021/08/28 10:29:40;;;;;;;6.13;4.10;;;20.30;99.90;;;;;;5016242;28;20022;-85
2021/08/28 10:32:06;;;;;;;6.82;3.55;;;20.50;99.90;;;;;;5015742;28;20026;-85
2021/08/28 10:34:33;;;;;;;7.28;3.90;;;20.50;99.90;;;;;;5016303;28;20041;-83
2021/08/28 10:36:59;;;;;;;10.32;4.72;;;20.50;99.90;;;;;;5014913;28;20524;-83
2021/08/28 10:39:25;;;;;;;10.70;4.85;;;20.60;99.90;;;;;;5015798;28;20096;-83
2021/08/28 10:41:51;;;;;;;13.02;4.68;;;20.60;99.90;;;;;;5016161;28;20042;-83
2021/08/28 10:44:17;;;;;;;8.43;3.63;;;20.50;99.90;;;;;;5015955;28;20394;-81
2021/08/28 10:46:43;;;;;;;8.20;3.78;;;20.30;99.90;;;;;;5015484;28;20034;-83
2021/08/28 10:49:12;;;;;;;8.27;4.00;;;20.10;99.90;;;;;;5016311;28;20108;-83
2021/08/28 10:51:42;;;;;;;10.23;3.35;;;20.10;99.90;;;;;;5017520;28;20117;-82
2021/08/28 10:54:10;;;;;;;9.07;3.92;;;20.10;99.90;;;;;;5016140;28;20022;-82
2021/08/28 10:56:43;;;;;;;4.63;3.25;;;20.20;99.90;;;;;;5016544;28;20026;-83
2021/08/28 10:59:27;;;;;;;5.82;3.58;;;20.20;99.90;;;;;;5016468;28;20120;-83
2021/08/28 11:02:01;;;;;;;10.45;3.78;;;20.20;99.90;;;;;;5014942;28;20089;-84
2021/08/28 11:04:30;;;;;;;7.72;3.67;;;20.30;99.90;;;;;;5014490;28;20112;-84
2021/08/28 11:07:25;;;;;;;7.65;3.58;;;20.40;99.90;;;;;;5014120;28;20014;-83
2021/08/28 11:10:04;;;;;;;4.22;3.20;;;20.60;99.90;;;;;;5015659;28;20032;-83
2021/08/28 11:12:47;;;;;;;4.65;3.25;;;20.80;99.90;;;;;;5014963;28;20425;-84
2021/08/28 11:15:24;;;;;;;5.38;3.53;;;20.90;99.90;;;;;;5014547;28;20022;-84
2021/08/28 11:17:59;;;;;;;6.28;3.10;;;20.70;99.90;;;;;;5014778;28;20165;-84
2021/08/28 11:20:27;;;;;;;3.25;2.95;;;20.70;99.90;;;;;;5014138;28;20485;-84
2021/08/28 11:22:53;;;;;;;5.97;3.38;;;20.60;99.90;;;;;;5015511;28;20434;-84
2021/08/28 11:25:24;;;;;;;5.50;3.67;;;20.50;99.90;;;;;;5015159;28;20041;-85
2021/08/28 11:27:55;;;;;;;3.92;2.88;;;20.50;99.90;;;;;;5014299;28;20033;-84
2021/08/28 11:30:40;;;;;;;3.58;3.25;;;20.60;99.90;;;;;;5028044;28;20049;-84
2021/08/28 11:33:10;;;;;;;8.23;3.67;;;20.50;99.90;;;;;;5029890;28;20025;-83
2021/08/28 11:35:40;;;;;;;3.47;3.13;;;20.70;99.90;;;;;;5025341;28;20040;-83
2021/08/28 11:38:07;;;;;;;5.13;2.85;;;20.90;99.90;;;;;;5019661;28;20026;-83
2021/08/28 11:40:35;;;;;;;4.75;3.13;;;20.90;99.90;;;;;;5015330;28;20029;-85
2021/08/28 11:43:01;;;;;;;7.88;3.55;;;20.90;99.90;;;;;;5014927;28;20030;-83
2021/08/28 11:45:30;;;;;;;3.33;2.85;;;20.80;99.90;;;;;;5014259;28;20096;-84
2021/08/28 11:47:56;;;;;;;7.70;3.03;;;20.60;99.90;;;;;;5014298;28;20104;-85
2021/08/28 11:50:32;;;;;;;5.68;3.53;;;20.50;99.90;;;;;;5014285;28;20056;-85
2021/08/28 11:52:59;;;;;;;6.10;2.97;;;20.30;99.90;;;;;;5014098;28;20065;-84
2021/08/28 11:55:29;;;;;;;7.38;3.30;;;20.30;99.90;;;;;;5013265;28;20053;-84
2021/08/28 11:58:13;;;;;;;6.63;3.25;;;20.10;99.90;;;;;;5014250;28;20022;-83
2021/08/28 12:00:39;;;;;;;5.03;2.85;;;20.00;99.90;;;;;;5014272;28;20033;-83
2021/08/28 12:03:06;;;;;;;4.93;3.47;;;20.10;99.90;;;;;;5014429;28;20493;-85
2021/08/28 12:05:32;;;;;;;4.45;3.00;;;20.30;99.90;;;;;;5014649;28;20037;-84
2021/08/28 12:07:58;;;;;;;8.32;3.30;;;20.30;99.90;;;;;;5014843;28;20540;-85
2021/08/28 12:10:25;;;;;;;4.15;2.60;;;20.60;99.90;;;;;;5014036;28;20030;-84
2021/08/28 12:13:03;;;;;;;6.53;2.83;;;20.70;99.90;;;;;;5015114;28;20022;-85
2021/08/28 12:15:30;;;;;;;5.43;3.00;;;20.70;99.90;;;;;;5013054;28;20030;-83
2021/08/28 12:17:58;;;;;;;5.72;2.50;;;20.70;99.90;;;;;;5014156;28;20041;-84
2021/08/28 12:20:32;;;;;;;4.65;3.00;;;20.60;99.90;;;;;;5014093;28;20425;-85
2021/08/28 12:23:00;;;;;;;8.77;3.58;;;20.60;99.90;;;;;;5003228;28;20108;-83
2021/08/28 12:25:26;;;;;;;6.95;3.25;;;20.40;99.90;;;;;;5013414;28;20528;-83
2021/08/28 12:27:53;;;;;;;5.47;2.80;;;20.30;99.90;;;;;;5013614;28;20029;-85
2021/08/28 12:30:20;;;;;;;4.53;3.25;;;20.30;99.90;;;;;;5010410;28;20048;-83
2021/08/28 12:32:46;;;;;;;5.80;3.20;;;20.20;99.90;;;;;;5012997;28;20492;-85
2021/08/28 12:35:11;;;;;;;6.13;3.67;;;20.20;99.90;;;;;;5013212;28;20026;-83
2021/08/28 12:37:37;;;;;;;8.48;3.70;;;20.40;99.90;;;;;;5013109;28;20105;-83
2021/08/28 12:40:12;;;;;;;6.43;3.25;;;20.50;99.90;;;;;;5014562;28;20044;-82
2021/08/28 12:42:38;;;;;;;5.28;2.90;;;20.50;99.90;;;;;;5013736;28;20018;-83
2021/08/28 12:45:07;;;;;;;12.38;3.30;;;20.60;99.90;;;;;;5015594;28;20033;-82